Terminal Aerodrome Forecast
Issued by NWS Billings, MT

Home | Current Version | Previous Version | Text Only | Print | Product List | Glossary On
Versions: 1 2 3 4 5 6 7 8 9 10 11 12 13 14 15
000
FTUS45 KBYZ 100531
TAFMLS
TAF
KMLS 100531Z 1006/1106 08010KT P6SM BKN050 OVC080
     FM101200 08010KT 6SM -SN SCT020 OVC035
     FM101600 09009KT P6SM SCT020 OVC035
     FM102100 09009KT P6SM VCSH SCT015 BKN025 OVC035=

USA.gov is the U.S. government's official web portal to all federal, state and local government web resources and services.